Blackwell, OK

7:57 PM CST on November 18, 2017 (GMT -0600)
Blackwell

Weather History for KBKN - March, 2013

Change the Weather History Date:

Friday, March 8, 2013

  Actual Average (KPNC) Record (KPNC)
Temperature  
Mean Temperature 55 °F -  
Max Temperature 62 °F 58 °F 81 °F (2006)
Min Temperature 48 °F 33 °F 6 °F (1967)
Degree Days  
Heating Degree Days 10    
Growing Degree Days 5 (Base 50)    
Moisture  
Dew Point 39 °F    
Average Humidity 58    
Maximum Humidity 72    
Minimum Humidity 41    
Precipitation  
Precipitation 0.00 in - - ()
Sea Level Pressure  
Sea Level Pressure 30.00 in    
Wind  
Wind Speed 16 mph (SE)    
Max Wind Speed 24 mph    
Max Gust Speed 31 mph    
Visibility 10 miles    
Events      
Averages and records for this station are not official NWS values.
T = Trace of Precipitation, MM = Missing Value Source: NWS Daily Summary

Daily Weather History Graph

Daily Weather History Graph

Search for Another Location

Airport or City:

Trip Planner

Search our weather history database for the weather conditions in past years. The results will help you decide how hot, cold, wet, or windy it might be!

Date:

Astronomy

Mar. 08, 2013 Rise Set
Actual Time 6:50 AM CST 6:30 PM CST
Civil Twilight 6:24 AM CST 6:56 PM CST
Nautical Twilight 5:54 AM CST 7:26 PM CST
Astronomical Twilight 5:24 AM CST 7:56 PM CST
Moon 4:31 AM CST (3/8) 3:30 PM CST (3/8)
Length of Visible Light 12h 32m
Length of Day
11h 40m
Waning Crescent, 11% of the Moon is Illuminated
Mar 8
Waning Crescent
Mar 11
New
Mar 19
First Quarter
Mar 27
Full
Apr 2
Last Quarter

Hourly Weather History & Observations

Time (CST) Temp. Dew Point Humidity Pressure Visibility Wind Dir Wind Speed Gust Speed Precip Events Conditions
12:15 AM 51.8 °F 28.4 °F 41% 30.06 in 10.0 mi SE 13.8 mph - N/A   Partly Cloudy
12:35 AM 50.0 °F 28.4 °F 43% 30.05 in 10.0 mi SE 12.7 mph - N/A   Partly Cloudy
12:55 AM 50.0 °F 28.4 °F 43% 30.05 in 10.0 mi SE 12.7 mph - N/A   Clear
1:15 AM 48.2 °F 28.4 °F 46% 30.05 in 10.0 mi SE 10.4 mph - N/A   Partly Cloudy
1:35 AM 48.2 °F 30.2 °F 50% 30.06 in 10.0 mi SE 10.4 mph - N/A   Clear
1:55 AM 48.2 °F 30.2 °F 50% 30.06 in 10.0 mi SE 11.5 mph - N/A   Clear
2:15 AM 48.2 °F 30.2 °F 50% 30.05 in 10.0 mi ESE 11.5 mph - N/A   Clear
2:35 AM 48.2 °F 30.2 °F 50% 30.05 in 10.0 mi SE 12.7 mph - N/A   Clear
2:55 AM 48.2 °F 30.2 °F 50% 30.05 in 10.0 mi SE 12.7 mph - N/A   Partly Cloudy
3:15 AM 48.2 °F 30.2 °F 50% 30.05 in 10.0 mi SE 11.5 mph - N/A   Partly Cloudy
3:35 AM 48.2 °F 30.2 °F 50% 30.04 in 10.0 mi SE 9.2 mph - N/A   Scattered Clouds
4:15 AM 48.2 °F 30.2 °F 50% 30.05 in 10.0 mi SE 11.5 mph - N/A   Mostly Cloudy
4:35 AM 48.2 °F 30.2 °F 50% 30.05 in 10.0 mi SE 12.7 mph - N/A   Scattered Clouds
4:55 AM 48.2 °F 32.0 °F 54% 30.04 in 10.0 mi SE 12.7 mph - N/A   Scattered Clouds
5:15 AM 48.2 °F 32.0 °F 54% 30.04 in 10.0 mi SE 13.8 mph - N/A   Mostly Cloudy
5:35 AM 48.2 °F 32.0 °F 54% 30.05 in 10.0 mi SE 12.7 mph - N/A   Mostly Cloudy
5:55 AM 48.2 °F 32.0 °F 54% 30.05 in 10.0 mi SE 15.0 mph - N/A   Mostly Cloudy
6:15 AM 50.0 °F 32.0 °F 50% 30.05 in 10.0 mi SE 15.0 mph - N/A   Mostly Cloudy
6:35 AM 50.0 °F 32.0 °F 50% 30.05 in 10.0 mi SE 13.8 mph 18.4 mph N/A   Scattered Clouds
6:55 AM 50.0 °F 32.0 °F 50% 30.05 in 10.0 mi SE 12.7 mph 18.4 mph N/A   Clear
7:15 AM 50.0 °F 32.0 °F 50% 30.06 in 10.0 mi SE 17.3 mph - N/A   Clear
7:35 AM 50.0 °F 32.0 °F 50% 30.07 in 10.0 mi SE 18.4 mph 24.2 mph N/A   Clear
7:55 AM 50.0 °F 32.0 °F 50% 30.07 in 10.0 mi SE 18.4 mph 24.2 mph N/A   Clear
8:15 AM 50.0 °F 33.8 °F 54% 30.06 in 10.0 mi SE 17.3 mph - N/A   Clear
8:35 AM 51.8 °F 35.6 °F 54% 30.07 in 10.0 mi SE 17.3 mph 21.9 mph N/A   Clear
8:55 AM 53.6 °F 35.6 °F 51% 30.07 in 10.0 mi SE 17.3 mph 23.0 mph N/A   Clear
9:15 AM 53.6 °F 35.6 °F 51% 30.08 in 10.0 mi SSE 18.4 mph - N/A   Scattered Clouds
9:35 AM 53.6 °F 37.4 °F 54% 30.07 in 10.0 mi SE 21.9 mph 26.5 mph N/A   Partly Cloudy
9:55 AM 55.4 °F 37.4 °F 51% 30.08 in 10.0 mi SSE 24.2 mph 28.8 mph N/A   Mostly Cloudy
10:15 AM 55.4 °F 37.4 °F 51% 30.08 in 10.0 mi SE 20.7 mph - N/A   Scattered Clouds
10:35 AM 55.4 °F 39.2 °F 54% 30.07 in 10.0 mi SE 20.7 mph 26.5 mph N/A   Mostly Cloudy
10:55 AM 55.4 °F 39.2 °F 54% 30.07 in 10.0 mi SE 19.6 mph 24.2 mph N/A   Scattered Clouds
11:15 AM 55.4 °F 39.2 °F 54% 30.07 in 10.0 mi SE 21.9 mph 26.5 mph N/A   Clear
11:35 AM 57.2 °F 39.2 °F 51% 30.07 in 10.0 mi SSE 17.3 mph 24.2 mph N/A   Mostly Cloudy
11:55 AM 57.2 °F 41.0 °F 55% 30.07 in 10.0 mi SSE 19.6 mph 23.0 mph N/A   Overcast
12:15 PM 59.0 °F 42.8 °F 55% 30.06 in 10.0 mi SE 20.7 mph 24.2 mph N/A   Overcast
12:35 PM 59.0 °F 44.6 °F 59% 30.04 in 10.0 mi SE 19.6 mph 26.5 mph N/A   Overcast
12:55 PM 59.0 °F 44.6 °F 59% 30.03 in 10.0 mi SE 20.7 mph 27.6 mph N/A   Overcast
1:15 PM 59.0 °F 44.6 °F 59% 30.01 in 10.0 mi SE 20.7 mph 25.3 mph N/A   Mostly Cloudy
1:35 PM 59.0 °F 44.6 °F 59% 29.99 in 10.0 mi SE 21.9 mph 28.8 mph N/A   Partly Cloudy
1:55 PM 59.0 °F 44.6 °F 59% 29.98 in 10.0 mi SE 18.4 mph 27.6 mph N/A   Clear
2:15 PM 59.0 °F 46.4 °F 63% 29.97 in 10.0 mi SE 18.4 mph 25.3 mph N/A   Clear
2:35 PM 62.6 °F 46.4 °F 55% 29.96 in 10.0 mi SE 20.7 mph 25.3 mph N/A   Clear
2:55 PM 62.6 °F 46.4 °F 55% 29.96 in 10.0 mi SE 21.9 mph 26.5 mph N/A   Partly Cloudy
3:15 PM 62.6 °F 48.2 °F 59% 29.96 in 10.0 mi SE 24.2 mph 28.8 mph N/A   Partly Cloudy
3:35 PM 60.8 °F 48.2 °F 63% 29.95 in 10.0 mi SE 19.6 mph 27.6 mph N/A   Mostly Cloudy
3:55 PM 59.0 °F 48.2 °F 67% 29.95 in 10.0 mi SE 21.9 mph 28.8 mph N/A   Mostly Cloudy
4:15 PM 59.0 °F 48.2 °F 67% 29.95 in 10.0 mi SE 24.2 mph 29.9 mph N/A   Partly Cloudy
4:35 PM 59.0 °F 48.2 °F 67% 29.95 in 10.0 mi SE 19.6 mph 26.5 mph N/A   Mostly Cloudy
4:55 PM 59.0 °F 46.4 °F 63% 29.94 in 10.0 mi SE 20.7 mph 29.9 mph N/A   Overcast
5:15 PM 57.2 °F 46.4 °F 67% 29.94 in 10.0 mi SE 17.3 mph 26.5 mph N/A   Mostly Cloudy
5:35 PM 57.2 °F 46.4 °F 67% 29.94 in 10.0 mi SE 21.9 mph 26.5 mph N/A   Mostly Cloudy
5:55 PM 57.2 °F 46.4 °F 67% 29.94 in 10.0 mi SE 20.7 mph 24.2 mph N/A   Overcast
6:15 PM 57.2 °F 46.4 °F 67% 29.94 in 10.0 mi SSE 20.7 mph 31.1 mph N/A   Overcast
6:35 PM 57.2 °F 46.4 °F 67% 29.95 in 10.0 mi SE 20.7 mph 27.6 mph N/A   Overcast
6:55 PM 55.4 °F 46.4 °F 72% 29.95 in 9.0 mi SE 17.3 mph - N/A   Overcast
7:15 PM 55.4 °F 46.4 °F 72% 29.95 in 10.0 mi SSE 17.3 mph 24.2 mph N/A   Overcast
7:35 PM 55.4 °F 44.6 °F 67% 29.94 in 10.0 mi SE 20.7 mph 31.1 mph N/A   Overcast
7:55 PM 55.4 °F 44.6 °F 67% 29.94 in 10.0 mi SSE 18.4 mph 24.2 mph N/A   Overcast
8:15 PM 55.4 °F 44.6 °F 67% 29.94 in 10.0 mi SSE 19.6 mph 26.5 mph N/A   Overcast
8:35 PM 55.4 °F 44.6 °F 67% 29.94 in 10.0 mi SSE 18.4 mph 27.6 mph N/A   Overcast
8:55 PM 55.4 °F 44.6 °F 67% 29.94 in 10.0 mi SSE 20.7 mph 31.1 mph N/A   Overcast
9:15 PM 55.4 °F 44.6 °F 67% 29.93 in 10.0 mi SSE 21.9 mph 28.8 mph N/A   Overcast
9:35 PM 55.4 °F 44.6 °F 67% 29.93 in 10.0 mi SSE 21.9 mph 28.8 mph N/A   Overcast
9:55 PM 55.4 °F 44.6 °F 67% 29.92 in 10.0 mi SSE 18.4 mph 25.3 mph N/A   Overcast
10:15 PM 55.4 °F 44.6 °F 67% 29.90 in 10.0 mi SSE 19.6 mph 27.6 mph N/A   Overcast
10:35 PM 55.4 °F 44.6 °F 67% 29.90 in 10.0 mi SSE 20.7 mph 26.5 mph N/A   Overcast
10:55 PM 55.4 °F 44.6 °F 67% 29.90 in 10.0 mi SSE 21.9 mph 26.5 mph N/A   Overcast
11:15 PM 57.2 °F 46.4 °F 67% 29.91 in 10.0 mi SSE 21.9 mph 28.8 mph N/A   Overcast
11:35 PM 57.2 °F 46.4 °F 67% 29.91 in 10.0 mi SSE 23.0 mph 28.8 mph N/A   Overcast
11:55 PM 57.2 °F 46.4 °F 67% 29.91 in 10.0 mi SSE 23.0 mph 27.6 mph N/A   Overcast